Time,TemperatureF,DewpointF,PressureIn,WindDirection,WindDirectionDegrees,WindSpeedMPH,WindSpeedGustMPH,Humidity,HourlyPrecipIn,Conditions,Clouds,dailyrainin,SoftwareType,DateUTC
2013-01-30 00:05:00,50.4,49.0,30.08,SE,146,9.0,14.0,95,0.00,,,0.00,Wunderground v.1.15,2013-01-30 05:05:00,
2013-01-30 00:10:00,50.9,49.5,30.08,SSE,161,10.0,10.0,95,0.00,,,0.00,Wunderground v.1.15,2013-01-30 05:10:00,
2013-01-30 00:15:00,51.4,49.7,30.07,South,173,10.0,10.0,94,0.00,,,0.00,Wunderground v.1.15,2013-01-30 05:15:00,
2013-01-30 00:20:00,51.6,49.6,30.07,SSE,168,9.0,9.0,93,0.00,,,0.00,Wunderground v.1.15,2013-01-30 05:20:00,
2013-01-30 00:25:00,51.9,49.9,30.07,SE,134,9.0,9.0,93,0.00,,,0.00,Wunderground v.1.15,2013-01-30 05:25:00,
2013-01-30 00:30:00,51.7,49.5,30.06,SSE,156,10.0,10.0,92,0.00,,,0.00,Wunderground v.1.15,2013-01-30 05:30:00,
2013-01-30 00:40:00,51.8,49.5,30.06,SSE,156,10.0,10.0,92,0.00,,,0.00,Wunderground v.1.15,2013-01-30 05:40:00,
2013-01-30 00:45:00,51.7,49.2,30.06,South,182,9.0,10.0,91,0.00,,,0.00,Wunderground v.1.15,2013-01-30 05:45:00,
2013-01-30 00:50:00,51.7,49.2,30.05,SSE,164,9.0,9.0,91,0.00,,,0.00,Wunderground v.1.15,2013-01-30 05:50:00,
2013-01-30 00:55:00,51.5,49.0,30.05,SSW,196,10.0,10.0,91,0.00,,,0.00,Wunderground v.1.15,2013-01-30 05:55:00,
2013-01-30 01:00:00,51.6,49.1,30.04,SE,144,11.0,11.0,91,0.00,,,0.00,Wunderground v.1.15,2013-01-30 06:00:00,
2013-01-30 01:10:00,51.4,48.9,30.03,SE,142,10.0,15.0,91,0.00,,,0.00,Wunderground v.1.15,2013-01-30 06:10:00,
2013-01-30 01:15:00,51.2,48.7,30.03,SSE,150,10.0,15.0,91,0.00,,,0.00,Wunderground v.1.15,2013-01-30 06:15:00,
2013-01-30 01:20:00,50.9,48.4,30.03,SSE,160,10.0,10.0,91,0.00,,,0.00,Wunderground v.1.15,2013-01-30 06:20:00,
2013-01-30 01:25:00,50.8,48.6,30.02,SE,138,9.0,11.0,92,0.00,,,0.00,Wunderground v.1.15,2013-01-30 06:25:00,
2013-01-30 01:30:00,50.6,48.1,30.02,SE,133,9.0,9.0,91,0.00,,,0.00,Wunderground v.1.15,2013-01-30 06:30:00,
2013-01-30 01:35:00,50.4,48.2,30.01,SE,140,9.0,10.0,92,0.00,,,0.00,Wunderground v.1.15,2013-01-30 06:35:00,
2013-01-30 01:40:00,50.4,48.2,30.01,SE,130,8.0,15.0,92,0.00,,,0.00,Wunderground v.1.15,2013-01-30 06:40:00,
2013-01-30 01:45:00,50.3,48.1,30.00,SE,135,7.0,15.0,92,0.00,,,0.00,Wunderground v.1.15,2013-01-30 06:45:00,
2013-01-30 01:50:00,50.2,48.0,30.00,SSE,158,8.0,8.0,92,0.00,,,0.00,Wunderground v.1.15,2013-01-30 06:50:00,
2013-01-30 01:55:00,50.1,47.9,30.00,South,178,7.0,15.0,92,0.00,,,0.00,Wunderground v.1.15,2013-01-30 06:55:00,
2013-01-30 02:00:00,50.0,47.8,29.99,SE,143,6.0,15.0,92,0.00,,,0.00,Wunderground v.1.15,2013-01-30 07:00:00,
2013-01-30 02:30:00,50.7,48.2,29.97,SSE,148,8.0,15.0,91,0.00,,,0.00,Wunderground v.1.15,2013-01-30 07:30:00,
2013-01-30 02:35:00,50.7,48.2,29.97,East,98,7.0,15.0,91,0.00,,,0.00,Wunderground v.1.15,2013-01-30 07:35:00,
2013-01-30 02:40:00,50.8,48.3,29.96,SE,137,7.0,15.0,91,0.00,,,0.00,Wunderground v.1.15,2013-01-30 07:40:00,
2013-01-30 02:45:00,50.9,48.4,29.96,SSE,153,8.0,15.0,91,0.00,,,0.00,Wunderground v.1.15,2013-01-30 07:45:00,
2013-01-30 02:50:00,51.2,48.7,29.95,SSE,153,9.0,9.0,91,0.00,,,0.00,Wunderground v.1.15,2013-01-30 07:50:00,
2013-01-30 03:00:00,51.5,48.7,29.94,SE,135,9.0,15.0,90,0.00,,,0.00,Wunderground v.1.15,2013-01-30 08:00:00,
2013-01-30 03:05:00,51.8,48.7,29.93,SSE,156,11.0,15.0,89,0.00,,,0.00,Wunderground v.1.15,2013-01-30 08:05:00,
2013-01-30 03:10:00,51.8,48.7,29.93,SE,140,10.0,15.0,89,0.00,,,0.00,Wunderground v.1.15,2013-01-30 08:10:00,
2013-01-30 03:15:00,51.9,48.8,29.93,SSE,157,10.0,15.0,89,0.00,,,0.00,Wunderground v.1.15,2013-01-30 08:15:00,
2013-01-30 03:20:00,52.1,49.0,29.93,South,186,11.0,11.0,89,0.00,,,0.00,Wunderground v.1.15,2013-01-30 08:20:00,
2013-01-30 03:30:00,52.1,48.7,29.92,South,174,11.0,11.0,88,0.00,,,0.00,Wunderground v.1.15,2013-01-30 08:30:00,
2013-01-30 03:35:00,52.3,48.9,29.92,SSE,156,11.0,12.0,88,0.00,,,0.00,Wunderground v.1.15,2013-01-30 08:35:00,
2013-01-30 03:40:00,52.2,48.8,29.92,SSE,162,11.0,16.0,88,0.00,,,0.00,Wunderground v.1.15,2013-01-30 08:40:00,
2013-01-30 03:45:00,52.3,48.9,29.91,SSE,151,11.0,16.0,88,0.00,,,0.00,Wunderground v.1.15,2013-01-30 08:45:00,
2013-01-30 03:50:00,52.3,48.9,29.91,South,181,11.0,15.0,88,0.00,,,0.00,Wunderground v.1.15,2013-01-30 08:50:00,
2013-01-30 03:55:00,52.4,48.9,29.92,SSE,153,11.0,15.0,88,0.00,,,0.00,Wunderground v.1.15,2013-01-30 08:55:00,
2013-01-30 04:05:00,52.3,48.9,29.91,South,184,10.0,17.0,88,0.00,,,0.00,Wunderground v.1.15,2013-01-30 09:05:00,
2013-01-30 04:10:00,52.3,48.9,29.91,SSE,159,9.0,9.0,88,0.00,,,0.00,Wunderground v.1.15,2013-01-30 09:10:00,
2013-01-30 04:15:00,52.3,48.9,29.90,South,184,9.0,15.0,88,0.00,,,0.00,Wunderground v.1.15,2013-01-30 09:15:00,
2013-01-30 04:20:00,52.4,48.6,29.90,South,175,8.0,8.0,87,0.00,,,0.00,Wunderground v.1.15,2013-01-30 09:20:00,
2013-01-30 04:25:00,52.4,48.6,29.90,SSW,213,8.0,11.0,87,0.00,,,0.00,Wunderground v.1.15,2013-01-30 09:25:00,
2013-01-30 04:35:00,52.6,48.8,29.88,SSW,196,9.0,15.0,87,0.00,,,0.00,Wunderground v.1.15,2013-01-30 09:35:00,
2013-01-30 04:40:00,52.6,48.5,29.88,SSE,168,10.0,15.0,86,0.00,,,0.00,Wunderground v.1.15,2013-01-30 09:40:00,
2013-01-30 04:45:00,52.8,48.7,29.88,SSW,202,10.0,15.0,86,0.00,,,0.00,Wunderground v.1.15,2013-01-30 09:45:00,
2013-01-30 04:50:00,52.9,48.8,29.87,SSE,162,12.0,15.0,86,0.00,,,0.00,Wunderground v.1.15,2013-01-30 09:50:00,
2013-01-30 04:55:00,52.9,48.8,29.86,South,180,11.0,15.0,86,0.00,,,0.00,Wunderground v.1.15,2013-01-30 09:55:00,
2013-01-30 05:00:00,52.8,48.7,29.87,South,183,11.0,15.0,86,0.00,,,0.00,Wunderground v.1.15,2013-01-30 10:00:00,
2013-01-30 05:10:00,52.8,48.4,29.86,SSW,201,11.0,17.0,85,0.00,,,0.00,Wunderground v.1.15,2013-01-30 10:10:00,
2013-01-30 05:15:00,52.6,48.2,29.86,SSW,194,10.0,17.0,85,0.00,,,0.00,Wunderground v.1.15,2013-01-30 10:15:00,
2013-01-30 05:20:00,52.5,48.4,29.86,South,178,9.0,15.0,86,0.00,,,0.00,Wunderground v.1.15,2013-01-30 10:20:00,
2013-01-30 05:25:00,52.3,48.2,29.85,SSW,192,8.0,15.0,86,0.00,,,0.00,Wunderground v.1.15,2013-01-30 10:25:00,
2013-01-30 05:30:00,52.2,48.1,29.86,WSW,242,8.0,8.0,86,0.00,,,0.00,Wunderground v.1.15,2013-01-30 10:30:00,
2013-01-30 05:40:00,52.3,48.2,29.85,SSE,153,9.0,15.0,86,0.00,,,0.00,Wunderground v.1.15,2013-01-30 10:40:00,
2013-01-30 05:45:00,52.3,48.2,29.86,South,188,9.0,15.0,86,0.00,,,0.00,Wunderground v.1.15,2013-01-30 10:45:00,
2013-01-30 05:50:00,52.4,48.0,29.85,South,184,9.0,9.0,85,0.00,,,0.00,Wunderground v.1.15,2013-01-30 10:50:00,
2013-01-30 05:55:00,52.3,47.9,29.85,SSW,199,8.0,15.0,85,0.00,,,0.00,Wunderground v.1.15,2013-01-30 10:55:00,
2013-01-30 06:00:00,52.4,48.0,29.85,South,188,8.0,9.0,85,0.00,,,0.00,Wunderground v.1.15,2013-01-30 11:00:00,
2013-01-30 06:10:00,52.5,48.1,29.84,SE,138,8.0,16.0,85,0.00,,,0.00,Wunderground v.1.15,2013-01-30 11:10:00,
2013-01-30 06:15:00,52.6,48.2,29.84,SSE,150,9.0,17.0,85,0.00,,,0.00,Wunderground v.1.15,2013-01-30 11:15:00,
2013-01-30 06:20:00,52.6,47.9,29.84,SSE,163,12.0,12.0,84,0.00,,,0.00,Wunderground v.1.15,2013-01-30 11:20:00,
2013-01-30 06:25:00,52.5,47.8,29.83,SE,146,14.0,18.0,84,0.00,,,0.00,Wunderground v.1.15,2013-01-30 11:25:00,
2013-01-30 06:30:00,52.5,47.8,29.83,SE,138,14.0,14.0,84,0.00,,,0.00,Wunderground v.1.15,2013-01-30 11:30:00,
2013-01-30 06:35:00,52.3,47.6,29.83,South,178,13.0,17.0,84,0.00,,,0.00,Wunderground v.1.15,2013-01-30 11:35:00,
2013-01-30 06:45:00,52.5,47.8,29.82,SSE,160,15.0,15.0,84,0.00,,,0.00,Wunderground v.1.15,2013-01-30 11:45:00,
2013-01-30 06:50:00,52.5,47.8,29.82,SSE,162,15.0,15.0,84,0.00,,,0.00,Wunderground v.1.15,2013-01-30 11:50:00,
2013-01-30 06:55:00,52.4,47.7,29.82,SSW,196,14.0,15.0,84,0.00,,,0.00,Wunderground v.1.15,2013-01-30 11:55:00,
2013-01-30 07:00:00,52.3,47.6,29.82,SSE,157,14.0,16.0,84,0.00,,,0.00,Wunderground v.1.15,2013-01-30 12:00:00,
2013-01-30 07:05:00,52.3,47.6,29.81,South,173,13.0,23.0,84,0.00,,,0.00,Wunderground v.1.15,2013-01-30 12:05:00,
2013-01-30 07:10:00,52.3,47.6,29.82,SE,136,13.0,13.0,84,0.00,,,0.00,Wunderground v.1.15,2013-01-30 12:10:00,
2013-01-30 07:20:00,52.2,47.5,29.80,SE,133,15.0,23.0,84,0.00,,,0.00,Wunderground v.1.15,2013-01-30 12:20:00,
2013-01-30 07:25:00,52.2,47.5,29.80,SSE,161,14.0,23.0,84,0.00,,,0.00,Wunderground v.1.15,2013-01-30 12:25:00,
2013-01-30 07:30:00,52.1,47.4,29.80,SSE,155,13.0,23.0,84,0.00,,,0.00,Wunderground v.1.15,2013-01-30 12:30:00,
2013-01-30 07:35:00,52.4,47.7,29.80,SSE,161,13.0,23.0,84,0.00,,,0.00,Wunderground v.1.15,2013-01-30 12:35:00,
2013-01-30 07:40:00,52.4,47.7,29.79,SSE,153,13.0,23.0,84,0.00,,,0.00,Wunderground v.1.15,2013-01-30 12:40:00,
2013-01-30 07:50:00,52.6,47.9,29.79,SSE,165,13.0,13.0,84,0.00,,,0.00,Wunderground v.1.15,2013-01-30 12:50:00,
2013-01-30 07:55:00,52.5,47.8,29.78,SSE,165,12.0,23.0,84,0.00,,,0.00,Wunderground v.1.15,2013-01-30 12:55:00,
2013-01-30 08:00:00,52.6,47.9,29.78,SSE,159,13.0,23.0,84,0.00,,,0.00,Wunderground v.1.15,2013-01-30 13:00:00,
2013-01-30 08:05:00,52.6,47.9,29.78,SSE,163,13.0,23.0,84,0.00,,,0.00,Wunderground v.1.15,2013-01-30 13:05:00,
2013-01-30 08:10:00,52.8,48.1,29.78,SSE,162,13.0,13.0,84,0.00,,,0.00,Wunderground v.1.15,2013-01-30 13:10:00,
2013-01-30 08:15:00,52.9,48.2,29.78,SSE,166,14.0,15.0,84,0.00,,,0.00,Wunderground v.1.15,2013-01-30 13:15:00,
2013-01-30 08:25:00,53.0,48.3,29.78,SE,146,15.0,23.0,84,0.00,,,0.00,Wunderground v.1.15,2013-01-30 13:25:00,
2013-01-30 08:30:00,53.1,48.4,29.77,SSE,150,15.0,23.0,84,0.00,,,0.00,Wunderground v.1.15,2013-01-30 13:30:00,
2013-01-30 08:35:00,53.3,48.6,29.77,SSE,152,16.0,23.0,84,0.00,,,0.00,Wunderground v.1.15,2013-01-30 13:35:00,
2013-01-30 08:40:00,53.5,48.8,29.77,SE,142,15.0,23.0,84,0.00,,,0.00,Wunderground v.1.15,2013-01-30 13:40:00,
2013-01-30 08:45:00,53.6,48.9,29.76,SSE,154,15.0,23.0,84,0.00,,,0.00,Wunderground v.1.15,2013-01-30 13:45:00,
2013-01-30 08:55:00,53.6,48.9,29.75,SSE,149,15.0,23.0,84,0.00,,,0.00,Wunderground v.1.15,2013-01-30 13:55:00,
2013-01-30 09:00:00,53.6,48.9,29.75,SE,145,14.0,14.0,84,0.00,,,0.00,Wunderground v.1.15,2013-01-30 14:00:00,
2013-01-30 09:05:00,53.7,49.0,29.75,SE,145,14.0,18.0,84,0.00,,,0.00,Wunderground v.1.15,2013-01-30 14:05:00,
2013-01-30 09:15:00,54.0,49.3,29.73,SE,136,14.0,25.0,84,0.00,,,0.00,Wunderground v.1.15,2013-01-30 14:15:00,
2013-01-30 09:20:00,54.2,49.5,29.73,SSE,168,15.0,15.0,84,0.00,,,0.00,Wunderground v.1.15,2013-01-30 14:20:00,
2013-01-30 09:30:00,54.4,49.7,29.72,South,184,14.0,14.0,84,0.00,,,0.00,Wunderground v.1.15,2013-01-30 14:30:00,
2013-01-30 09:35:00,54.7,50.0,29.72,South,171,15.0,15.0,84,0.00,,,0.00,Wunderground v.1.15,2013-01-30 14:35:00,
2013-01-30 09:40:00,54.9,50.2,29.71,SSE,150,14.0,14.0,84,0.00,,,0.00,Wunderground v.1.15,2013-01-30 14:40:00,
2013-01-30 09:45:00,55.1,50.4,29.71,SSE,157,14.0,23.0,84,0.00,,,0.00,Wunderground v.1.15,2013-01-30 14:45:00,
2013-01-30 09:50:00,55.2,50.4,29.71,South,175,12.0,12.0,84,0.00,,,0.00,Wunderground v.1.15,2013-01-30 14:50:00,
2013-01-30 09:55:00,55.5,50.7,29.71,SSE,161,11.0,14.0,84,0.00,,,0.00,Wunderground v.1.15,2013-01-30 14:55:00,
2013-01-30 10:05:00,56.0,51.2,29.70,SSE,166,12.0,23.0,84,0.00,,,0.00,Wunderground v.1.15,2013-01-30 15:05:00,
2013-01-30 10:10:00,56.1,51.3,29.70,South,180,11.0,11.0,84,0.00,,,0.00,Wunderground v.1.15,2013-01-30 15:10:00,
2013-01-30 10:15:00,56.5,51.4,29.70,South,182,13.0,13.0,83,0.00,,,0.00,Wunderground v.1.15,2013-01-30 15:15:00,
2013-01-30 10:20:00,56.7,51.6,29.69,SE,126,14.0,14.0,83,0.00,,,0.00,Wunderground v.1.15,2013-01-30 15:20:00,
2013-01-30 10:25:00,56.9,51.8,29.69,SSW,207,14.0,17.0,83,0.00,,,0.00,Wunderground v.1.15,2013-01-30 15:25:00,
2013-01-30 10:35:00,57.0,51.9,29.68,South,175,13.0,21.0,83,0.00,,,0.00,Wunderground v.1.15,2013-01-30 15:35:00,
2013-01-30 10:40:00,57.1,51.7,29.67,South,180,14.0,14.0,82,0.00,,,0.00,Wunderground v.1.15,2013-01-30 15:40:00,
2013-01-30 10:45:00,56.9,51.8,29.67,SSE,167,13.0,23.0,83,0.00,,,0.00,Wunderground v.1.15,2013-01-30 15:45:00,
2013-01-30 10:50:00,57.0,51.9,29.67,South,188,13.0,23.0,83,0.00,,,0.00,Wunderground v.1.15,2013-01-30 15:50:00,
2013-01-30 10:55:00,57.1,52.0,29.67,South,187,15.0,27.0,83,0.00,,,0.00,Wunderground v.1.15,2013-01-30 15:55:00,
2013-01-30 11:00:00,57.2,52.1,29.68,SE,138,15.0,15.0,83,0.00,,,0.00,Wunderground v.1.15,2013-01-30 16:00:00,
2013-01-30 11:10:00,57.6,52.1,29.67,SSW,203,14.0,14.0,82,0.00,,,0.00,Wunderground v.1.15,2013-01-30 16:10:00,
2013-01-30 11:15:00,57.6,52.1,29.68,SSE,159,15.0,20.0,82,0.00,,,0.00,Wunderground v.1.15,2013-01-30 16:15:00,
2013-01-30 11:20:00,57.6,52.1,29.67,SSE,151,14.0,23.0,82,0.00,,,0.00,Wunderground v.1.15,2013-01-30 16:20:00,
2013-01-30 11:25:00,57.7,52.2,29.67,SSW,194,13.0,23.0,82,0.00,,,0.00,Wunderground v.1.15,2013-01-30 16:25:00,
2013-01-30 11:30:00,57.8,52.3,29.66,South,184,13.0,23.0,82,0.00,,,0.00,Wunderground v.1.15,2013-01-30 16:30:00,
2013-01-30 11:40:00,58.1,52.6,29.67,SE,136,12.0,23.0,82,0.00,,,0.00,Wunderground v.1.15,2013-01-30 16:40:00,
2013-01-30 11:45:00,58.2,52.7,29.67,SW,234,11.0,23.0,82,0.00,,,0.00,Wunderground v.1.15,2013-01-30 16:45:00,
2013-01-30 11:50:00,58.2,53.1,29.67,SSW,194,10.0,23.0,83,0.00,,,0.00,Wunderground v.1.15,2013-01-30 16:50:00,
2013-01-30 11:55:00,58.2,53.1,29.66,South,177,12.0,23.0,83,0.00,,,0.00,Wunderground v.1.15,2013-01-30 16:55:00,
2013-01-30 12:00:00,57.9,52.8,29.66,South,173,12.0,12.0,83,0.00,,,0.00,Wunderground v.1.15,2013-01-30 17:00:00,
2013-01-30 12:10:00,57.5,53.0,29.65,SSE,164,12.0,12.0,85,0.00,,,0.00,Wunderground v.1.15,2013-01-30 17:10:00,
2013-01-30 12:15:00,57.3,53.1,29.65,West,270,12.0,13.0,86,0.00,,,0.00,Wunderground v.1.15,2013-01-30 17:15:00,
2013-01-30 12:20:00,57.3,53.1,29.65,SSE,168,11.0,11.0,86,0.00,,,0.00,Wunderground v.1.15,2013-01-30 17:20:00,
2013-01-30 12:25:00,57.3,53.1,29.65,South,174,11.0,16.0,86,0.00,,,0.00,Wunderground v.1.15,2013-01-30 17:25:00,
2013-01-30 12:35:00,58.0,53.5,29.67,South,191,11.0,12.0,85,0.00,,,0.00,Wunderground v.1.15,2013-01-30 17:35:00,
2013-01-30 12:40:00,58.0,53.5,29.67,South,174,11.0,13.0,85,0.00,,,0.00,Wunderground v.1.15,2013-01-30 17:40:00,
2013-01-30 12:45:00,58.2,53.7,29.67,West,264,11.0,13.0,85,0.00,,,0.00,Wunderground v.1.15,2013-01-30 17:45:00,
2013-01-30 12:50:00,58.3,54.1,29.66,SSW,205,11.0,13.0,86,0.00,,,0.00,Wunderground v.1.15,2013-01-30 17:50:00,
2013-01-30 12:55:00,58.7,54.5,29.66,SW,222,10.0,13.0,86,0.00,,,0.00,Wunderground v.1.15,2013-01-30 17:55:00,
2013-01-30 13:00:00,59.0,54.5,29.65,SW,219,10.0,10.0,85,0.00,,,0.00,Wunderground v.1.15,2013-01-30 18:00:00,
2013-01-30 13:05:00,59.1,54.3,29.65,SSW,193,10.0,12.0,84,0.00,,,0.00,Wunderground v.1.15,2013-01-30 18:05:00,
2013-01-30 13:15:00,59.3,54.5,29.64,South,190,12.0,33.0,84,0.00,,,0.00,Wunderground v.1.15,2013-01-30 18:15:00,
2013-01-30 13:20:00,59.8,55.0,29.63,South,180,11.0,33.0,84,0.00,,,0.00,Wunderground v.1.15,2013-01-30 18:20:00,
2013-01-30 13:25:00,60.3,55.1,29.62,South,182,10.0,33.0,83,0.00,,,0.00,Wunderground v.1.15,2013-01-30 18:25:00,
2013-01-30 13:30:00,60.4,54.9,29.61,South,184,9.0,33.0,82,0.00,,,0.00,Wunderground v.1.15,2013-01-30 18:30:00,
2013-01-30 13:35:00,60.0,54.8,29.61,SSW,193,10.0,33.0,83,0.00,,,0.00,Wunderground v.1.15,2013-01-30 18:35:00,
2013-01-30 13:40:00,60.0,54.8,29.61,South,169,11.0,33.0,83,0.00,,,0.00,Wunderground v.1.15,2013-01-30 18:40:00,
2013-01-30 13:50:00,60.0,54.8,29.60,SSE,153,11.0,11.0,83,0.00,,,0.00,Wunderground v.1.15,2013-01-30 18:50:00,
2013-01-30 13:55:00,60.1,54.9,29.60,SSE,153,11.0,33.0,83,0.00,,,0.00,Wunderground v.1.15,2013-01-30 18:55:00,
2013-01-30 14:00:00,60.0,54.8,29.61,South,174,11.0,11.0,83,0.00,,,0.00,Wunderground v.1.15,2013-01-30 19:00:00,
2013-01-30 14:05:00,60.0,54.8,29.61,SSW,200,11.0,33.0,83,0.00,,,0.00,Wunderground v.1.15,2013-01-30 19:05:00,
2013-01-30 14:10:00,60.0,54.8,29.61,SSW,202,10.0,33.0,83,0.00,,,0.00,Wunderground v.1.15,2013-01-30 19:10:00,
2013-01-30 14:20:00,60.3,54.8,29.60,South,188,10.0,10.0,82,0.00,,,0.00,Wunderground v.1.15,2013-01-30 19:20:00,
2013-01-30 14:25:00,60.7,54.8,29.60,SSW,209,10.0,33.0,81,0.00,,,0.00,Wunderground v.1.15,2013-01-30 19:25:00,
2013-01-30 14:30:00,60.9,55.0,29.60,South,175,10.0,33.0,81,0.00,,,0.00,Wunderground v.1.15,2013-01-30 19:30:00,
2013-01-30 14:35:00,61.0,54.8,29.60,SSE,158,10.0,33.0,80,0.00,,,0.00,Wunderground v.1.15,2013-01-30 19:35:00,
2013-01-30 14:40:00,61.0,54.8,29.60,WSW,242,10.0,10.0,80,0.00,,,0.00,Wunderground v.1.15,2013-01-30 19:40:00,
2013-01-30 14:45:00,60.9,54.7,29.61,SSW,194,10.0,33.0,80,0.00,,,0.00,Wunderground v.1.15,2013-01-30 19:45:00,
2013-01-30 14:55:00,60.6,54.4,29.61,SSW,200,8.0,33.0,80,0.00,,,0.00,Wunderground v.1.15,2013-01-30 19:55:00,
2013-01-30 15:00:00,60.7,54.5,29.61,SSE,160,9.0,9.0,80,0.00,,,0.00,Wunderground v.1.15,2013-01-30 20:00:00,
2013-01-30 15:05:00,60.7,54.1,29.62,South,169,9.0,10.0,79,0.00,,,0.00,Wunderground v.1.15,2013-01-30 20:05:00,
2013-01-30 15:10:00,60.8,54.2,29.62,ESE,122,9.0,33.0,79,0.00,,,0.00,Wunderground v.1.15,2013-01-30 20:10:00,
2013-01-30 15:15:00,60.7,54.1,29.62,East,96,9.0,33.0,79,0.00,,,0.00,Wunderground v.1.15,2013-01-30 20:15:00,
2013-01-30 15:25:00,60.4,54.2,29.62,SSW,202,10.0,33.0,80,0.00,,,0.00,Wunderground v.1.15,2013-01-30 20:25:00,
2013-01-30 15:30:00,60.2,54.0,29.62,South,178,8.0,8.0,80,0.00,,,0.00,Wunderground v.1.15,2013-01-30 20:30:00,
2013-01-30 15:35:00,60.1,53.9,29.62,West,260,8.0,33.0,80,0.00,,,0.00,Wunderground v.1.15,2013-01-30 20:35:00,
2013-01-30 15:40:00,60.1,53.9,29.61,SSW,196,8.0,8.0,80,0.00,,,0.00,Wunderground v.1.15,2013-01-30 20:40:00,
2013-01-30 15:45:00,60.0,53.8,29.60,South,180,9.0,9.0,80,0.00,,,0.00,Wunderground v.1.15,2013-01-30 20:45:00,
2013-01-30 15:50:00,59.9,53.7,29.59,WSW,239,10.0,10.0,80,0.00,,,0.00,Wunderground v.1.15,2013-01-30 20:50:00,
2013-01-30 16:00:00,59.8,53.6,29.58,South,188,10.0,33.0,80,0.00,,,0.00,Wunderground v.1.15,2013-01-30 21:00:00,
2013-01-30 16:05:00,59.6,53.8,29.58,SSE,163,11.0,33.0,81,0.00,,,0.00,Wunderground v.1.15,2013-01-30 21:05:00,
2013-01-30 16:10:00,59.5,53.7,29.58,South,186,11.0,11.0,81,0.00,,,0.00,Wunderground v.1.15,2013-01-30 21:10:00,
2013-01-30 16:15:00,59.4,53.9,29.58,SSW,202,11.0,33.0,82,0.00,,,0.00,Wunderground v.1.15,2013-01-30 21:15:00,
2013-01-30 16:20:00,59.3,53.8,29.58,SSW,197,11.0,11.0,82,0.00,,,0.00,Wunderground v.1.15,2013-01-30 21:20:00,
2013-01-30 16:25:00,59.1,53.3,29.56,SW,224,11.0,15.0,81,0.00,,,0.00,Wunderground v.1.15,2013-01-30 21:25:00,
2013-01-30 16:30:00,59.1,53.6,29.56,SW,219,12.0,12.0,82,0.00,,,0.00,Wunderground v.1.15,2013-01-30 21:30:00,
2013-01-30 16:35:00,59.1,53.3,29.56,NW,326,13.0,13.0,81,0.00,,,0.00,Wunderground v.1.15,2013-01-30 21:35:00,
2013-01-30 16:40:00,59.0,53.5,29.55,SSE,161,13.0,13.0,82,0.00,,,0.00,Wunderground v.1.15,2013-01-30 21:40:00,
2013-01-30 16:45:00,58.8,53.3,29.55,SSE,153,12.0,16.0,82,0.00,,,0.00,Wunderground v.1.15,2013-01-30 21:45:00,
2013-01-30 16:55:00,58.8,53.3,29.55,SSW,207,12.0,33.0,82,0.00,,,0.00,Wunderground v.1.15,2013-01-30 21:55:00,
2013-01-30 17:00:00,58.6,53.1,29.55,SE,133,12.0,12.0,82,0.00,,,0.00,Wunderground v.1.15,2013-01-30 22:00:00,
2013-01-30 17:05:00,58.7,53.2,29.55,SSW,192,12.0,33.0,82,0.00,,,0.00,Wunderground v.1.15,2013-01-30 22:05:00,
2013-01-30 17:10:00,58.6,53.1,29.56,SSW,196,13.0,33.0,82,0.00,,,0.00,Wunderground v.1.15,2013-01-30 22:10:00,
2013-01-30 17:15:00,58.6,53.1,29.56,SSW,194,12.0,33.0,82,0.00,,,0.00,Wunderground v.1.15,2013-01-30 22:15:00,
2013-01-30 17:20:00,58.5,53.0,29.57,SSW,207,12.0,12.0,82,0.00,,,0.00,Wunderground v.1.15,2013-01-30 22:20:00,
2013-01-30 17:25:00,58.5,53.0,29.56,SSW,199,11.0,16.0,82,0.00,,,0.00,Wunderground v.1.15,2013-01-30 22:25:00,
2013-01-30 17:35:00,58.5,53.0,29.57,SSW,206,10.0,33.0,82,0.00,,,0.00,Wunderground v.1.15,2013-01-30 22:35:00,
2013-01-30 17:40:00,58.5,52.7,29.57,South,190,11.0,33.0,81,0.00,,,0.00,Wunderground v.1.15,2013-01-30 22:40:00,
2013-01-30 17:45:00,58.6,52.4,29.57,SW,230,11.0,33.0,80,0.00,,,0.00,Wunderground v.1.15,2013-01-30 22:45:00,
2013-01-30 17:50:00,58.6,52.4,29.56,SSW,209,11.0,33.0,80,0.00,,,0.00,Wunderground v.1.15,2013-01-30 22:50:00,
2013-01-30 17:55:00,58.6,52.4,29.57,South,176,11.0,33.0,80,0.00,,,0.00,Wunderground v.1.15,2013-01-30 22:55:00,
2013-01-30 18:00:00,58.4,52.3,29.56,SW,216,11.0,13.0,80,0.00,,,0.00,Wunderground v.1.15,2013-01-30 23:00:00,
2013-01-30 18:10:00,58.5,52.0,29.55,SSW,198,11.0,11.0,79,0.00,,,0.00,Wunderground v.1.15,2013-01-30 23:10:00,
2013-01-30 18:15:00,58.5,52.0,29.56,South,190,11.0,21.0,79,0.00,,,0.00,Wunderground v.1.15,2013-01-30 23:15:00,
2013-01-30 18:20:00,58.5,52.0,29.55,SSW,193,11.0,16.0,79,0.00,,,0.00,Wunderground v.1.15,2013-01-30 23:20:00,
2013-01-30 18:25:00,58.4,51.9,29.54,SW,230,11.0,16.0,79,0.00,,,0.00,Wunderground v.1.15,2013-01-30 23:25:00,
2013-01-30 18:30:00,58.2,51.7,29.54,SSW,208,10.0,10.0,79,0.00,,,0.00,Wunderground v.1.15,2013-01-30 23:30:00,
2013-01-30 18:40:00,57.9,51.8,29.54,East,93,10.0,15.0,80,0.00,,,0.00,Wunderground v.1.15,2013-01-30 23:40:00,
2013-01-30 18:45:00,57.9,51.8,29.55,South,190,10.0,15.0,80,0.00,,,0.00,Wunderground v.1.15,2013-01-30 23:45:00,
2013-01-30 18:50:00,57.7,51.6,29.54,SSW,198,10.0,14.0,80,0.00,,,0.00,Wunderground v.1.15,2013-01-30 23:50:00,
2013-01-30 18:55:00,57.5,51.4,29.55,SSW,204,10.0,14.0,80,0.00,,,0.00,Wunderground v.1.15,2013-01-30 23:55:00,
2013-01-30 19:00:00,57.4,51.6,29.54,SW,223,9.0,12.0,81,0.00,,,0.00,Wunderground v.1.15,2013-01-31 00:00:00,
2013-01-30 19:10:00,57.4,51.3,29.53,South,187,10.0,10.0,80,0.00,,,0.00,Wunderground v.1.15,2013-01-31 00:10:00,
2013-01-30 19:15:00,57.2,51.4,29.52,South,184,9.0,13.0,81,0.00,,,0.00,Wunderground v.1.15,2013-01-31 00:15:00,
2013-01-30 19:20:00,57.0,51.2,29.52,WSW,244,9.0,9.0,81,0.00,,,0.00,Wunderground v.1.15,2013-01-31 00:20:00,
2013-01-30 19:25:00,56.9,51.5,29.51,South,183,9.0,26.0,82,0.00,,,0.00,Wunderground v.1.15,2013-01-31 00:25:00,
2013-01-30 19:30:00,56.8,51.4,29.51,South,178,9.0,26.0,82,0.00,,,0.00,Wunderground v.1.15,2013-01-31 00:30:00,
2013-01-30 19:35:00,56.8,51.0,29.51,South,182,10.0,26.0,81,0.00,,,0.00,Wunderground v.1.15,2013-01-31 00:35:00,
2013-01-30 19:45:00,56.7,50.9,29.51,SSE,154,11.0,26.0,81,0.00,,,0.00,Wunderground v.1.15,2013-01-31 00:45:00,
2013-01-30 19:50:00,56.7,50.9,29.51,West,266,11.0,26.0,81,0.00,,,0.00,Wunderground v.1.15,2013-01-31 00:50:00,
2013-01-30 19:55:00,56.8,51.4,29.49,South,177,12.0,26.0,82,0.00,,,0.00,Wunderground v.1.15,2013-01-31 00:55:00,
2013-01-30 20:00:00,56.6,51.2,29.49,South,189,12.0,12.0,82,0.00,,,0.00,Wunderground v.1.15,2013-01-31 01:00:00,
2013-01-30 20:05:00,56.5,51.1,29.49,South,171,12.0,17.0,82,0.00,,,0.00,Wunderground v.1.15,2013-01-31 01:05:00,
2013-01-30 20:10:00,56.3,51.2,29.49,South,174,12.0,28.0,83,0.00,,,0.00,Wunderground v.1.15,2013-01-31 01:10:00,
2013-01-30 20:20:00,56.0,51.2,29.48,West,272,14.0,14.0,84,0.00,,,0.00,Wunderground v.1.15,2013-01-31 01:20:00,
2013-01-30 20:25:00,56.0,51.2,29.48,SSE,158,13.0,26.0,84,0.00,,,0.00,Wunderground v.1.15,2013-01-31 01:25:00,
2013-01-30 20:30:00,56.0,51.2,29.47,SSW,205,15.0,15.0,84,0.00,,,0.00,Wunderground v.1.15,2013-01-31 01:30:00,
2013-01-30 20:35:00,56.0,51.6,29.46,SSW,209,16.0,16.0,85,0.00,,,0.00,Wunderground v.1.15,2013-01-31 01:35:00,
2013-01-30 20:40:00,55.9,51.5,29.45,South,188,16.0,16.0,85,0.00,,,0.00,Wunderground v.1.15,2013-01-31 01:40:00,
2013-01-30 20:45:00,55.6,51.5,29.45,SSE,157,16.0,17.0,86,0.00,,,0.00,Wunderground v.1.15,2013-01-31 01:45:00,
2013-01-30 20:50:00,55.6,51.5,29.43,SSE,148,17.0,26.0,86,0.00,,,0.00,Wunderground v.1.15,2013-01-31 01:50:00,
2013-01-30 20:55:00,55.4,51.6,29.44,SSW,198,18.0,26.0,87,0.00,,,0.00,Wunderground v.1.15,2013-01-31 01:55:00,
2013-01-30 21:00:00,55.3,51.5,29.44,SSW,213,16.0,26.0,87,0.00,,,0.00,Wunderground v.1.15,2013-01-31 02:00:00,
2013-01-30 21:05:00,55.3,51.5,29.44,South,188,15.0,26.0,87,0.00,,,0.01,Wunderground v.1.15,2013-01-31 02:05:00,
2013-01-30 21:10:00,55.3,51.2,29.44,South,180,15.0,26.0,86,0.00,,,0.01,Wunderground v.1.15,2013-01-31 02:10:00,
2013-01-30 21:20:00,55.3,51.2,29.45,SSW,196,14.0,14.0,86,0.00,,,0.01,Wunderground v.1.15,2013-01-31 02:20:00,
2013-01-30 21:25:00,55.2,51.1,29.45,South,188,13.0,17.0,86,0.00,,,0.01,Wunderground v.1.15,2013-01-31 02:25:00,
2013-01-30 21:30:00,55.1,51.3,29.45,South,171,13.0,26.0,87,0.00,,,0.01,Wunderground v.1.15,2013-01-31 02:30:00,
2013-01-30 21:35:00,55.0,51.2,29.45,SSW,199,13.0,26.0,87,0.00,,,0.01,Wunderground v.1.15,2013-01-31 02:35:00,
2013-01-30 21:40:00,54.8,51.0,29.45,SSW,196,12.0,26.0,87,0.00,,,0.01,Wunderground v.1.15,2013-01-31 02:40:00,
2013-01-30 21:50:00,54.6,51.1,29.45,South,169,11.0,11.0,88,0.00,,,0.01,Wunderground v.1.15,2013-01-31 02:50:00,
2013-01-30 21:55:00,54.5,51.0,29.45,SW,227,11.0,19.0,88,0.00,,,0.01,Wunderground v.1.15,2013-01-31 02:55:00,
2013-01-30 22:00:00,54.4,50.9,29.45,SSE,157,11.0,11.0,88,0.00,,,0.01,Wunderground v.1.15,2013-01-31 03:00:00,
2013-01-30 22:05:00,54.4,51.2,29.44,South,188,11.0,18.0,89,0.00,,,0.01,Wunderground v.1.15,2013-01-31 03:05:00,
2013-01-30 22:10:00,54.5,51.3,29.44,South,178,12.0,12.0,89,0.00,,,0.01,Wunderground v.1.15,2013-01-31 03:10:00,
2013-01-30 22:15:00,54.5,51.3,29.44,SSE,155,12.0,26.0,89,0.00,,,0.01,Wunderground v.1.15,2013-01-31 03:15:00,
2013-01-30 22:25:00,54.2,51.0,29.43,SE,142,9.0,26.0,89,0.00,,,0.01,Wunderground v.1.15,2013-01-31 03:25:00,
2013-01-30 22:30:00,54.1,50.9,29.41,SSE,163,9.0,9.0,89,0.00,,,0.01,Wunderground v.1.15,2013-01-31 03:30:00,
2013-01-30 22:35:00,54.0,51.1,29.41,South,185,9.0,26.0,90,0.00,,,0.01,Wunderground v.1.15,2013-01-31 03:35:00,
2013-01-30 22:40:00,54.0,51.1,29.41,South,180,10.0,10.0,90,0.00,,,0.01,Wunderground v.1.15,2013-01-31 03:40:00,
2013-01-30 22:45:00,53.7,50.8,29.41,South,171,10.0,26.0,90,0.00,,,0.01,Wunderground v.1.15,2013-01-31 03:45:00,
2013-01-30 22:55:00,53.2,50.6,29.40,SE,140,8.0,26.0,91,0.00,,,0.01,Wunderground v.1.15,2013-01-31 03:55:00,
2013-01-30 23:00:00,53.0,50.7,29.40,SE,131,8.0,26.0,92,0.00,,,0.01,Wunderground v.1.15,2013-01-31 04:00:00,
2013-01-30 23:05:00,52.8,50.5,29.38,SE,142,9.0,26.0,92,0.00,,,0.01,Wunderground v.1.15,2013-01-31 04:05:00,
2013-01-30 23:10:00,52.7,50.4,29.37,SE,129,9.0,26.0,92,0.00,,,0.01,Wunderground v.1.15,2013-01-31 04:10:00,
2013-01-30 23:15:00,52.7,50.4,29.37,SSE,157,10.0,26.0,92,0.00,,,0.01,Wunderground v.1.15,2013-01-31 04:15:00,
2013-01-30 23:20:00,52.7,50.4,29.36,SSE,159,11.0,11.0,92,0.00,,,0.02,Wunderground v.1.15,2013-01-31 04:20:00,
2013-01-30 23:30:00,52.8,50.5,29.36,SSE,149,11.0,11.0,92,0.00,,,0.02,Wunderground v.1.15,2013-01-31 04:30:00,
2013-01-30 23:35:00,52.9,50.6,29.36,SE,146,10.0,14.0,92,0.00,,,0.02,Wunderground v.1.15,2013-01-31 04:35:00,
2013-01-30 23:40:00,52.9,50.6,29.35,SSE,165,11.0,11.0,92,0.00,,,0.02,Wunderground v.1.15,2013-01-31 04:40:00,
2013-01-30 23:45:00,52.9,50.9,29.34,SE,140,11.0,26.0,93,0.00,,,0.02,Wunderground v.1.15,2013-01-31 04:45:00,
2013-01-30 23:50:00,52.8,50.8,29.33,SE,136,11.0,26.0,93,0.00,,,0.02,Wunderground v.1.15,2013-01-31 04:50:00,